createdAt,value
2022-10-11T00:00:07.220Z,18.71
2022-10-11T00:02:36.910Z,18.34
2022-10-11T00:05:05.951Z,18.81
2022-10-11T00:07:33.508Z,18.51
2022-10-11T00:10:03.005Z,18.65
2022-10-11T00:12:30.578Z,18.59
2022-10-11T00:14:58.121Z,18.35
2022-10-11T00:17:28.793Z,18.27
2022-10-11T00:19:58.833Z,18.29
2022-10-11T00:22:28.691Z,18.02
2022-10-11T00:24:56.569Z,18.36
2022-10-11T00:27:24.185Z,17.91
2022-10-11T00:29:51.970Z,18.20
2022-10-11T00:32:20.146Z,18.21
2022-10-11T00:34:50.449Z,18.16
2022-10-11T00:37:20.148Z,18.27
2022-10-11T00:39:47.731Z,17.95
2022-10-11T00:42:15.422Z,17.84
2022-10-11T00:44:43.836Z,17.76
2022-10-11T00:47:17.814Z,17.91
2022-10-11T00:49:46.363Z,18.01
2022-10-11T00:52:15.644Z,18.28
2022-10-11T00:54:48.447Z,18.21
2022-10-11T00:57:18.979Z,18.06
2022-10-11T00:59:48.531Z,17.81
2022-10-11T01:02:16.709Z,17.59
2022-10-11T01:04:54.306Z,17.76
2022-10-11T01:07:31.304Z,18.06
2022-10-11T01:10:00.778Z,18.02
2022-10-11T01:12:28.701Z,17.70
2022-10-11T01:15:07.150Z,17.47
2022-10-11T01:17:37.566Z,17.73
2022-10-11T01:20:17.403Z,17.72
2022-10-11T01:22:55.234Z,16.75
2022-10-11T01:25:25.821Z,17.52
2022-10-11T01:27:56.787Z,17.85
2022-10-11T01:30:31.801Z,17.84
2022-10-11T01:33:01.598Z,17.85
2022-10-11T01:35:46.669Z,17.78
2022-10-11T01:38:16.815Z,17.61
2022-10-11T01:40:48.727Z,17.23
2022-10-11T01:43:16.627Z,17.47
2022-10-11T01:45:46.199Z,17.79
2022-10-11T01:48:17.366Z,17.80
2022-10-11T01:50:45.950Z,18.08
2022-10-11T01:53:30.996Z,17.77
2022-10-11T01:56:02.653Z,17.32
2022-10-11T01:58:34.639Z,17.44
2022-10-11T02:01:08.838Z,17.38
2022-10-11T02:03:41.221Z,17.56
2022-10-11T02:06:09.896Z,17.85
2022-10-11T02:08:40.011Z,17.57
2022-10-11T02:11:08.174Z,17.95
2022-10-11T02:16:08.511Z,17.99
2022-10-11T02:18:43.090Z,17.61
2022-10-11T02:21:11.896Z,17.76
2022-10-11T02:23:44.421Z,18.05
2022-10-11T02:26:12.745Z,18.08
2022-10-11T02:28:40.772Z,17.98
2022-10-11T02:31:11.338Z,17.31
2022-10-11T02:33:40.805Z,17.17
2022-10-11T02:36:14.056Z,17.39
2022-10-11T02:38:42.854Z,16.05
2022-10-11T02:41:12.850Z,16.34
2022-10-11T02:43:41.576Z,16.25
2022-10-11T02:46:12.559Z,16.12
2022-10-11T02:48:40.512Z,16.33
2022-10-11T02:51:08.281Z,16.55
2022-10-11T02:53:35.855Z,16.45
2022-10-11T02:56:03.754Z,16.40
2022-10-11T02:58:31.571Z,16.35
2022-10-11T03:01:03.284Z,15.64
2022-10-11T03:03:36.011Z,17.47
2022-10-11T03:06:07.114Z,17.69
2022-10-11T03:08:35.514Z,17.39
2022-10-11T03:11:03.141Z,17.27
2022-10-11T03:13:30.973Z,17.44
2022-10-11T03:16:03.253Z,15.85
2022-10-11T03:18:33.836Z,15.98
2022-10-11T03:21:03.952Z,15.55
2022-10-11T03:23:34.655Z,15.41
2022-10-11T03:26:03.027Z,15.49
2022-10-11T03:28:31.100Z,15.94
2022-10-11T03:31:01.233Z,15.42
2022-10-11T03:33:28.817Z,15.36
2022-10-11T03:35:58.269Z,15.34
2022-10-11T03:38:30.896Z,15.67
2022-10-11T03:40:59.091Z,15.46
2022-10-11T03:43:29.794Z,16.07
2022-10-11T03:45:59.706Z,15.57
2022-10-11T03:48:27.630Z,15.77
2022-10-11T03:50:57.129Z,15.87
2022-10-11T03:53:27.313Z,15.73
2022-10-11T03:55:55.242Z,15.39
2022-10-11T03:58:23.319Z,15.39
2022-10-11T04:00:51.353Z,13.75
2022-10-11T04:03:19.002Z,15.57
2022-10-11T04:05:46.978Z,15.96
2022-10-11T04:08:14.952Z,16.33
2022-10-11T04:10:48.259Z,16.07
2022-10-11T04:13:19.369Z,16.68
2022-10-11T04:15:47.854Z,17.08
2022-10-11T04:18:18.761Z,17.27
2022-10-11T04:20:46.948Z,17.41
2022-10-11T04:23:17.220Z,17.44
2022-10-11T04:25:50.669Z,17.18
2022-10-11T04:28:18.985Z,16.96
2022-10-11T04:30:48.382Z,17.28
2022-10-11T04:33:20.076Z,16.55
2022-10-11T04:35:52.699Z,16.64
2022-10-11T04:38:20.809Z,16.92
2022-10-11T04:40:52.998Z,16.63
2022-10-11T04:43:21.638Z,17.10
2022-10-11T04:45:54.617Z,17.03
2022-10-11T04:48:26.117Z,16.76
2022-10-11T04:50:53.877Z,17.09
2022-10-11T04:53:25.228Z,16.93
2022-10-11T04:56:01.390Z,16.64
2022-10-11T04:58:33.265Z,16.72
2022-10-11T05:01:04.709Z,16.97
2022-10-11T05:03:32.855Z,17.10
2022-10-11T05:06:06.057Z,17.16
2022-10-11T05:08:34.178Z,16.85
2022-10-11T05:11:04.005Z,16.65
2022-10-11T05:13:32.169Z,16.88
2022-10-11T05:16:06.923Z,16.82
2022-10-11T05:19:01.243Z,17.05
2022-10-11T05:21:32.007Z,16.77
2022-10-11T05:24:00.363Z,17.17
2022-10-11T05:26:32.357Z,17.35
2022-10-11T05:29:00.192Z,17.19
2022-10-11T05:31:27.923Z,17.50
2022-10-11T05:33:55.893Z,17.35
2022-10-11T05:36:23.546Z,16.98
2022-10-11T05:38:51.227Z,17.07
2022-10-11T05:41:19.693Z,17.15
2022-10-11T05:43:49.096Z,17.17
2022-10-11T05:46:16.800Z,17.36
2022-10-11T05:48:44.474Z,17.46
2022-10-11T05:51:12.304Z,15.88
2022-10-11T05:53:40.658Z,17.05
2022-10-11T05:56:18.974Z,17.20
2022-10-11T05:58:48.483Z,16.99
2022-10-11T06:01:20.665Z,17.08
2022-10-11T06:03:50.780Z,16.92
2022-10-11T06:06:21.000Z,16.77
2022-10-11T06:08:52.154Z,16.78
2022-10-11T06:11:27.779Z,17.07
2022-10-11T06:14:00.415Z,17.02
2022-10-11T06:16:28.246Z,16.61
2022-10-11T06:18:55.853Z,16.77
2022-10-11T06:21:25.075Z,16.63
2022-10-11T06:23:56.857Z,16.66
2022-10-11T06:26:27.982Z,17.00
2022-10-11T06:29:00.512Z,17.04
2022-10-11T06:31:28.486Z,16.86
2022-10-11T06:33:59.545Z,15.32
2022-10-11T06:36:31.561Z,16.81
2022-10-11T06:39:01.047Z,16.77
2022-10-11T06:41:29.668Z,16.93
2022-10-11T06:43:59.353Z,16.82
2022-10-11T06:46:27.566Z,16.81
2022-10-11T06:48:56.474Z,16.80
2022-10-11T06:51:24.629Z,16.70
2022-10-11T06:53:53.072Z,16.69
2022-10-11T06:56:24.489Z,16.39
2022-10-11T06:58:53.624Z,16.74
2022-10-11T07:01:24.912Z,16.71
2022-10-11T07:03:53.279Z,16.75
2022-10-11T07:06:21.296Z,16.75
2022-10-11T07:08:51.070Z,16.70
2022-10-11T07:11:19.522Z,16.97
2022-10-11T07:13:51.373Z,16.45
2022-10-11T07:16:23.493Z,16.61
2022-10-11T07:19:01.972Z,16.79
2022-10-11T07:21:30.613Z,16.69
2022-10-11T07:24:02.108Z,16.72
2022-10-11T07:26:38.197Z,16.75
2022-10-11T07:29:07.208Z,16.39
2022-10-11T07:31:35.270Z,16.62
2022-10-11T07:34:10.906Z,16.92
2022-10-11T07:36:38.874Z,16.93
2022-10-11T07:39:07.054Z,16.68
2022-10-11T07:41:46.005Z,16.87
2022-10-11T07:44:14.061Z,16.74
2022-10-11T07:46:44.252Z,16.82
2022-10-11T07:49:19.435Z,16.75
2022-10-11T07:51:47.133Z,16.64
2022-10-11T07:54:14.734Z,16.57
2022-10-11T07:56:42.598Z,16.34
2022-10-11T07:59:11.762Z,16.67
2022-10-11T08:01:42.158Z,16.42
2022-10-11T08:04:11.764Z,16.45
2022-10-11T08:06:42.889Z,16.68
2022-10-11T08:09:13.147Z,16.74
2022-10-11T08:11:40.847Z,16.74
2022-10-11T08:14:11.773Z,16.27
2022-10-11T08:16:45.387Z,16.33
2022-10-11T08:19:13.027Z,16.49
2022-10-11T08:21:42.557Z,16.46
2022-10-11T08:24:10.535Z,16.49
2022-10-11T08:26:38.610Z,16.52
2022-10-11T08:29:07.577Z,16.26
2022-10-11T08:31:35.387Z,16.36
2022-10-11T08:34:04.577Z,16.49
2022-10-11T08:36:33.293Z,16.23
2022-10-11T08:39:02.897Z,14.55
2022-10-11T08:41:31.593Z,15.96
2022-10-11T08:44:05.111Z,16.04
2022-10-11T08:46:33.573Z,15.84
2022-10-11T08:49:03.543Z,16.02
2022-10-11T08:51:32.193Z,15.90
2022-10-11T08:54:07.538Z,16.06
2022-10-11T08:56:41.958Z,16.31
2022-10-11T08:59:17.668Z,16.28
2022-10-11T09:01:46.830Z,16.17
2022-10-11T09:04:15.007Z,15.93
2022-10-11T09:06:46.189Z,15.74
2022-10-11T09:09:21.680Z,15.69
2022-10-11T09:11:54.189Z,15.71
2022-10-11T09:14:25.707Z,15.86
2022-10-11T09:16:57.281Z,16.14
2022-10-11T09:19:32.456Z,16.28
2022-10-11T09:22:05.189Z,16.10
2022-10-11T09:24:37.564Z,16.16
2022-10-11T09:27:09.500Z,15.78
2022-10-11T09:29:41.631Z,15.66
2022-10-11T09:32:18.043Z,15.92
2022-10-11T09:34:48.510Z,16.08
2022-10-11T09:37:17.713Z,16.48
2022-10-11T09:39:46.914Z,17.01
2022-10-11T09:42:18.983Z,16.46
2022-10-11T09:44:48.823Z,16.43
2022-10-11T09:47:20.348Z,16.57
2022-10-11T09:49:51.217Z,16.34
2022-10-11T09:52:22.782Z,16.40
2022-10-11T09:54:51.952Z,16.46
2022-10-11T09:57:22.680Z,16.76
2022-10-11T10:00:01.683Z,16.64
2022-10-11T10:02:30.069Z,16.59
2022-10-11T10:05:01.916Z,16.69
2022-10-11T10:07:30.433Z,16.89
2022-10-11T10:10:01.382Z,16.98
2022-10-11T10:12:31.082Z,16.98
2022-10-11T10:15:06.582Z,17.14
2022-10-11T10:17:35.118Z,17.08
2022-10-11T10:20:05.646Z,17.32
2022-10-11T10:22:33.939Z,17.29
2022-10-11T10:25:08.246Z,17.43
2022-10-11T10:27:37.823Z,17.15
2022-10-11T10:30:17.079Z,17.31
2022-10-11T10:32:49.128Z,17.37
2022-10-11T10:35:20.709Z,17.32
2022-10-11T10:37:51.512Z,17.24
2022-10-11T10:40:22.960Z,17.46
2022-10-11T10:42:53.848Z,17.22
2022-10-11T10:45:22.133Z,17.31
2022-10-11T10:48:04.606Z,17.41
2022-10-11T10:50:33.209Z,17.59
2022-10-11T10:53:07.581Z,17.75
2022-10-11T10:55:40.433Z,17.37
2022-10-11T10:58:18.753Z,17.39
2022-10-11T11:00:48.178Z,17.43
2022-10-11T11:03:19.270Z,17.89
2022-10-11T11:05:48.387Z,17.77
2022-10-11T11:08:19.325Z,17.65
2022-10-11T11:10:48.650Z,17.59
2022-10-11T11:13:21.677Z,17.36
2022-10-11T11:15:56.879Z,17.18
2022-10-11T11:18:29.222Z,17.22
2022-10-11T11:21:06.553Z,17.47
2022-10-11T11:23:35.420Z,17.48
2022-10-11T11:26:04.962Z,17.87
2022-10-11T11:28:40.461Z,17.78
2022-10-11T11:31:22.115Z,17.35
2022-10-11T11:33:51.566Z,17.27
2022-10-11T11:36:20.549Z,17.48
2022-10-11T11:38:49.840Z,17.43
2022-10-11T11:41:21.510Z,17.68
2022-10-11T11:43:58.316Z,17.86
2022-10-11T11:46:26.429Z,17.72
2022-10-11T11:48:54.175Z,17.95
2022-10-11T11:51:22.978Z,17.78
2022-10-11T11:53:53.716Z,17.73
2022-10-11T11:56:28.988Z,18.10
2022-10-11T11:59:00.312Z,18.43
2022-10-11T12:01:31.736Z,18.29
2022-10-11T12:04:00.076Z,18.20
2022-10-11T12:06:29.001Z,18.16
2022-10-11T12:09:02.005Z,18.35
2022-10-11T12:11:35.274Z,18.39
2022-10-11T12:14:05.906Z,18.53
2022-10-11T12:16:33.503Z,18.55
2022-10-11T12:19:05.054Z,18.38
2022-10-11T12:21:33.782Z,18.30
2022-10-11T12:24:02.282Z,18.27
2022-10-11T12:26:36.781Z,18.47
2022-10-11T12:29:28.733Z,18.56
2022-10-11T12:32:12.649Z,18.23
2022-10-11T12:37:32.141Z,18.04
2022-10-11T12:40:03.063Z,17.98
2022-10-11T12:42:34.212Z,18.03
2022-10-11T12:45:20.617Z,18.00
2022-10-11T12:47:50.275Z,18.24
2022-10-11T12:50:21.383Z,17.71
2022-10-11T12:52:52.423Z,17.59
2022-10-11T12:55:37.102Z,17.59
2022-10-11T12:58:26.344Z,17.72
2022-10-11T13:01:17.693Z,17.90
2022-10-11T13:03:51.123Z,18.07
2022-10-11T13:06:22.446Z,18.24
2022-10-11T13:08:55.972Z,18.36
2022-10-11T13:11:27.597Z,18.33
2022-10-11T13:13:55.718Z,18.13
2022-10-11T13:16:25.347Z,18.43
2022-10-11T13:18:58.361Z,18.14
2022-10-11T13:21:28.425Z,18.10
2022-10-11T13:26:51.161Z,17.51
2022-10-11T13:29:21.484Z,17.47
2022-10-11T13:31:49.365Z,17.50
2022-10-11T13:34:23.051Z,17.75
2022-10-11T13:36:55.216Z,17.59
2022-10-11T13:39:30.034Z,17.44
2022-10-11T13:42:01.765Z,17.37
2022-10-11T13:44:29.543Z,17.43
2022-10-11T13:46:57.432Z,17.78
2022-10-11T13:49:29.160Z,18.22
2022-10-11T13:52:02.645Z,18.76
2022-10-11T13:54:45.396Z,18.71
2022-10-11T13:57:13.229Z,17.92
2022-10-11T13:59:40.806Z,17.76
2022-10-11T14:02:17.510Z,17.93
2022-10-11T14:04:48.443Z,17.59
2022-10-11T14:07:17.885Z,17.49
2022-10-11T14:09:46.892Z,17.84
2022-10-11T14:12:31.534Z,17.78
2022-10-11T14:14:59.612Z,17.86
2022-10-11T14:17:34.811Z,17.80
2022-10-11T14:20:15.025Z,18.09
2022-10-11T14:22:42.787Z,17.97
2022-10-11T14:25:10.617Z,17.83
2022-10-11T14:27:38.431Z,18.14
2022-10-11T14:30:24.586Z,17.91
2022-10-11T14:32:56.251Z,17.80
2022-10-11T14:35:25.701Z,18.10
2022-10-11T14:37:53.555Z,17.93
2022-10-11T14:40:22.428Z,18.16
2022-10-11T14:42:52.752Z,18.25
2022-10-11T14:45:22.970Z,18.16
2022-10-11T14:47:51.117Z,17.85
2022-10-11T14:50:24.025Z,17.88
2022-10-11T14:52:53.652Z,18.04
2022-10-11T14:55:21.619Z,17.81
2022-10-11T14:57:49.514Z,18.11
2022-10-11T15:00:18.176Z,17.98
2022-10-11T15:02:47.838Z,17.77
2022-10-11T15:05:15.477Z,17.68
2022-10-11T15:07:46.873Z,17.78
2022-10-11T15:10:22.529Z,17.78
2022-10-11T15:12:50.428Z,17.75
2022-10-11T15:15:20.500Z,17.59
2022-10-11T15:17:54.660Z,17.79
2022-10-11T15:20:24.544Z,17.82
2022-10-11T15:22:56.877Z,18.03
2022-10-11T15:25:26.588Z,18.33
2022-10-11T15:27:54.488Z,18.25
2022-10-11T15:30:25.183Z,18.08
2022-10-11T15:32:52.792Z,18.12
2022-10-11T15:35:20.535Z,18.33
2022-10-11T15:37:48.245Z,18.21
2022-10-11T15:40:17.759Z,18.17
2022-10-11T15:42:46.985Z,18.17
2022-10-11T15:45:14.714Z,17.94
2022-10-11T15:47:42.267Z,17.77
2022-10-11T15:50:14.385Z,17.69
2022-10-11T15:52:43.956Z,17.63
2022-10-11T15:55:11.876Z,16.13
2022-10-11T15:57:39.477Z,17.55
2022-10-11T16:00:09.817Z,17.49
2022-10-11T16:02:37.762Z,17.42
2022-10-11T16:05:05.972Z,17.59
2022-10-11T16:07:33.731Z,17.70
2022-10-11T16:10:01.564Z,17.74
2022-10-11T16:12:29.141Z,17.97
2022-10-11T16:14:57.024Z,18.19
2022-10-11T16:17:26.275Z,18.25
2022-10-11T16:19:53.824Z,18.23
2022-10-11T16:22:21.550Z,18.12
2022-10-11T16:24:49.347Z,18.01
2022-10-11T16:27:19.018Z,17.96
2022-10-11T16:29:46.696Z,17.69
2022-10-11T16:32:14.255Z,17.80
2022-10-11T16:34:43.393Z,17.93
2022-10-11T16:37:11.125Z,17.93
2022-10-11T16:39:38.727Z,17.75
2022-10-11T16:42:06.392Z,17.74
2022-10-11T16:44:33.963Z,17.74
2022-10-11T16:47:01.491Z,17.74
2022-10-11T16:49:29.706Z,17.57
2022-10-11T16:52:00.366Z,17.49
2022-10-11T16:54:29.481Z,17.32
2022-10-11T16:56:57.179Z,17.12
2022-10-11T16:59:24.719Z,16.98
2022-10-11T17:01:52.300Z,17.17
2022-10-11T17:04:19.831Z,17.20
2022-10-11T17:06:47.746Z,16.97
2022-10-11T17:09:16.914Z,16.69
2022-10-11T17:11:47.349Z,16.57
2022-10-11T17:14:14.904Z,16.53
2022-10-11T17:16:42.582Z,16.43
2022-10-11T17:19:13.649Z,16.50
2022-10-11T17:21:46.672Z,16.61
2022-10-11T17:24:14.261Z,16.65
2022-10-11T17:26:44.234Z,16.58
2022-10-11T17:29:13.390Z,16.70
2022-10-11T17:31:49.409Z,16.82
2022-10-11T17:34:19.857Z,16.90
2022-10-11T17:36:47.458Z,16.96
2022-10-11T17:39:16.152Z,15.43
2022-10-11T17:41:45.355Z,16.97
2022-10-11T17:44:13.007Z,17.10
2022-10-11T17:46:42.841Z,17.15
2022-10-11T17:49:10.766Z,17.26
2022-10-11T17:51:38.310Z,17.18
2022-10-11T17:54:12.390Z,17.43
2022-10-11T17:56:40.508Z,17.46
2022-10-11T17:59:13.222Z,17.37
2022-10-11T18:01:43.073Z,17.25
2022-10-11T18:04:19.091Z,17.18
2022-10-11T18:06:47.574Z,17.21
2022-10-11T18:09:17.470Z,17.20
2022-10-11T18:11:45.210Z,17.04
2022-10-11T18:14:16.725Z,16.94
2022-10-11T18:16:44.488Z,16.92
2022-10-11T18:19:12.663Z,16.97
2022-10-11T18:21:41.274Z,17.15
2022-10-11T18:24:11.746Z,17.16
2022-10-11T18:26:39.565Z,17.24
2022-10-11T18:29:10.463Z,17.28
2022-10-11T18:31:39.630Z,17.26
2022-10-11T18:34:12.913Z,17.34
2022-10-11T18:36:40.802Z,17.46
2022-10-11T18:39:09.386Z,17.45
2022-10-11T18:41:39.304Z,17.43
2022-10-11T18:44:07.912Z,17.40
2022-10-11T18:46:36.117Z,17.35
2022-10-11T18:49:07.430Z,17.45
2022-10-11T18:51:36.356Z,17.53
2022-10-11T18:54:06.866Z,17.57
2022-10-11T18:56:37.582Z,17.60
2022-10-11T18:59:05.638Z,17.56
2022-10-11T19:01:34.336Z,17.43
2022-10-11T19:04:07.415Z,17.35
2022-10-11T19:06:37.833Z,17.28
2022-10-11T19:09:06.510Z,17.01
2022-10-11T19:11:34.296Z,16.80
2022-10-11T19:14:06.996Z,16.63
2022-10-11T19:16:34.979Z,16.57
2022-10-11T19:19:03.352Z,16.58
2022-10-11T19:21:32.627Z,16.72
2022-10-11T19:24:05.019Z,17.04
2022-10-11T19:29:19.847Z,16.80
2022-10-11T19:31:53.514Z,16.69
2022-10-11T19:34:21.299Z,16.36
2022-10-11T19:36:50.234Z,16.22
2022-10-11T19:39:19.609Z,16.29
2022-10-11T19:41:47.347Z,16.42
2022-10-11T19:44:17.405Z,16.52
2022-10-11T19:46:51.656Z,16.79
2022-10-11T19:49:26.056Z,16.81
2022-10-11T19:51:56.230Z,17.01
2022-10-11T19:54:28.538Z,17.04
2022-10-11T19:56:56.446Z,16.98
2022-10-11T19:59:24.074Z,16.99
2022-10-11T20:01:53.578Z,17.00
2022-10-11T20:07:12.297Z,17.16
2022-10-11T20:09:42.920Z,17.24
2022-10-11T20:12:10.783Z,17.53
2022-10-11T20:14:38.420Z,17.65
2022-10-11T20:17:09.255Z,17.72
2022-10-11T20:19:38.779Z,17.62
2022-10-11T20:22:08.878Z,17.56
2022-10-11T20:24:39.445Z,17.44
2022-10-11T20:27:08.808Z,17.18
2022-10-11T20:29:39.289Z,16.80
2022-10-11T20:32:07.447Z,16.99
2022-10-11T20:34:36.486Z,16.94
2022-10-11T20:37:04.055Z,17.00
2022-10-11T20:39:34.175Z,17.05
2022-10-11T20:42:03.721Z,16.91
2022-10-11T20:44:34.506Z,16.73
2022-10-11T20:47:04.253Z,16.60
2022-10-11T20:49:34.485Z,16.69
2022-10-11T20:52:04.241Z,16.66
2022-10-11T20:54:35.452Z,16.69
2022-10-11T20:57:05.190Z,16.90
2022-10-11T20:59:39.035Z,17.24
2022-10-11T21:02:08.255Z,17.06
2022-10-11T21:04:35.822Z,16.87
2022-10-11T21:07:05.808Z,16.82
2022-10-11T21:09:35.999Z,16.79
2022-10-11T21:12:10.106Z,16.80
2022-10-11T21:14:42.013Z,16.78
2022-10-11T21:17:14.086Z,16.69
2022-10-11T21:19:45.999Z,16.41
2022-10-11T21:22:14.096Z,16.43
2022-10-11T21:24:45.710Z,16.48
2022-10-11T21:27:16.554Z,16.74
2022-10-11T21:29:46.098Z,17.01
2022-10-11T21:32:14.637Z,16.80
2022-10-11T21:34:42.282Z,16.83
2022-10-11T21:37:11.645Z,15.78
2022-10-11T21:39:39.356Z,17.16
2022-10-11T21:42:07.318Z,17.31
2022-10-11T21:44:39.560Z,17.50
2022-10-11T21:47:08.576Z,17.07
2022-10-11T21:49:36.932Z,17.25
2022-10-11T21:52:07.504Z,17.58
2022-10-11T21:54:35.361Z,17.68
2022-10-11T21:57:03.396Z,17.47
2022-10-11T21:59:31.802Z,17.79
2022-10-11T22:02:01.983Z,17.78
2022-10-11T22:04:31.579Z,17.54
2022-10-11T22:06:59.587Z,17.31
2022-10-11T22:09:28.658Z,17.19
2022-10-11T22:11:56.385Z,17.13
2022-10-11T22:14:26.106Z,16.99
2022-10-11T22:16:54.826Z,17.03
2022-10-11T22:19:22.508Z,17.06
2022-10-11T22:21:51.427Z,17.11
2022-10-11T22:24:20.253Z,17.12
2022-10-11T22:26:48.073Z,17.14
2022-10-11T22:29:15.860Z,17.17
2022-10-11T22:31:43.380Z,17.15
2022-10-11T22:34:13.865Z,17.01
2022-10-11T22:36:43.756Z,16.98
2022-10-11T22:39:13.470Z,17.05
2022-10-11T22:41:41.079Z,17.09
2022-10-11T22:44:12.415Z,17.06
2022-10-11T22:46:39.998Z,16.94
2022-10-11T22:49:07.820Z,16.83
2022-10-11T22:51:35.322Z,16.92
2022-10-11T22:54:06.083Z,17.01
2022-10-11T22:56:35.300Z,17.06
2022-10-11T22:59:04.736Z,17.07
2022-10-11T23:01:32.467Z,17.00
2022-10-11T23:04:01.999Z,17.01
2022-10-11T23:06:32.639Z,17.01
2022-10-11T23:09:02.569Z,17.08
2022-10-11T23:11:32.778Z,17.18
2022-10-11T23:14:01.914Z,17.14
2022-10-11T23:16:29.603Z,16.97
2022-10-11T23:18:57.483Z,16.94
2022-10-11T23:21:26.357Z,16.94
2022-10-11T23:23:54.530Z,16.78
2022-10-11T23:26:22.527Z,16.98
2022-10-11T23:28:52.101Z,16.91
2022-10-11T23:31:27.442Z,16.98
2022-10-11T23:33:55.056Z,17.26
2022-10-11T23:36:23.181Z,17.24
2022-10-11T23:38:51.858Z,17.30
2022-10-11T23:41:19.778Z,17.42
2022-10-11T23:43:47.434Z,17.42
2022-10-11T23:46:17.342Z,17.33
2022-10-11T23:48:47.242Z,17.28
2022-10-11T23:51:20.187Z,15.46
2022-10-11T23:53:50.277Z,17.12
2022-10-11T23:56:18.080Z,17.20
2022-10-11T23:58:46.046Z,17.14
